sensor_id;sensor_type;location;lat;lon;timestamp;pressure;altitude;pressure_sealevel;temperature;humidity
45763;BME280;37512;52.408;13.356;2024-01-30T00:00:50;102412.22;;;4.62;68.71
45763;BME280;37512;52.408;13.356;2024-01-30T00:04:52;102401.22;;;5.35;64.60
45763;BME280;37512;52.408;13.356;2024-01-30T00:08:54;102412.19;;;4.76;67.21
45763;BME280;37512;52.408;13.356;2024-01-30T00:12:56;102412.59;;;4.97;66.34
45763;BME280;37512;52.408;13.356;2024-01-30T00:16:57;102419.84;;;4.40;68.45
45763;BME280;37512;52.408;13.356;2024-01-30T00:20:59;102413.91;;;4.36;69.70
45763;BME280;37512;52.408;13.356;2024-01-30T00:25:00;102410.09;;;4.26;70.47
45763;BME280;37512;52.408;13.356;2024-01-30T00:29:02;102416.16;;;4.28;71.18
45763;BME280;37512;52.408;13.356;2024-01-30T00:33:04;102407.63;;;3.94;72.88
45763;BME280;37512;52.408;13.356;2024-01-30T00:37:05;102415.31;;;4.28;69.93
45763;BME280;37512;52.408;13.356;2024-01-30T00:41:10;102405.09;;;4.36;70.60
45763;BME280;37512;52.408;13.356;2024-01-30T00:45:13;102411.25;;;4.22;70.07
45763;BME280;37512;52.408;13.356;2024-01-30T00:49:16;102404.69;;;4.13;71.06
45763;BME280;37512;52.408;13.356;2024-01-30T00:53:17;102402.44;;;4.07;71.69
45763;BME280;37512;52.408;13.356;2024-01-30T00:57:19;102399.59;;;4.10;71.32
45763;BME280;37512;52.408;13.356;2024-01-30T01:01:22;102393.44;;;4.10;71.03
45763;BME280;37512;52.408;13.356;2024-01-30T01:05:24;102406.41;;;4.29;71.69
45763;BME280;37512;52.408;13.356;2024-01-30T01:09:25;102389.81;;;4.11;71.38
45763;BME280;37512;52.408;13.356;2024-01-30T01:13:27;102400.63;;;4.22;70.33
45763;BME280;37512;52.408;13.356;2024-01-30T01:17:29;102401.28;;;3.97;72.38
45763;BME280;37512;52.408;13.356;2024-01-30T01:21:30;102399.22;;;3.88;72.40
45763;BME280;37512;52.408;13.356;2024-01-30T01:25:32;102401.66;;;3.77;72.57
45763;BME280;37512;52.408;13.356;2024-01-30T01:29:33;102404.97;;;3.66;73.93
45763;BME280;37512;52.408;13.356;2024-01-30T01:33:36;102397.78;;;3.82;72.80
45763;BME280;37512;52.408;13.356;2024-01-30T01:37:39;102404.97;;;3.80;73.09
45763;BME280;37512;52.408;13.356;2024-01-30T01:41:41;102397.78;;;3.82;73.93
45763;BME280;37512;52.408;13.356;2024-01-30T01:45:43;102402.88;;;4.28;70.47
45763;BME280;37512;52.408;13.356;2024-01-30T01:49:44;102393.75;;;5.14;64.94
45763;BME280;37512;52.408;13.356;2024-01-30T01:53:46;102393.31;;;5.60;62.50
45763;BME280;37512;52.408;13.356;2024-01-30T01:57:48;102397.31;;;5.53;62.15
45763;BME280;37512;52.408;13.356;2024-01-30T02:01:52;102386.13;;;5.35;63.35
45763;BME280;37512;52.408;13.356;2024-01-30T02:05:55;102388.28;;;4.76;65.37
45763;BME280;37512;52.408;13.356;2024-01-30T02:09:56;102394.53;;;5.02;64.58
45763;BME280;37512;52.408;13.356;2024-01-30T02:14:02;102386.41;;;5.18;64.52
45763;BME280;37512;52.408;13.356;2024-01-30T02:18:05;102400.06;;;4.72;66.65
45763;BME280;37512;52.408;13.356;2024-01-30T02:22:07;102385.91;;;5.26;64.34
45763;BME280;37512;52.408;13.356;2024-01-30T02:26:09;102387.63;;;5.27;63.66
45763;BME280;37512;52.408;13.356;2024-01-30T02:30:11;102393.09;;;5.11;64.54
45763;BME280;37512;52.408;13.356;2024-01-30T02:34:13;102391.81;;;5.17;63.81
45763;BME280;37512;52.408;13.356;2024-01-30T02:38:15;102395.75;;;5.11;64.99
45763;BME280;37512;52.408;13.356;2024-01-30T02:42:18;102385.59;;;5.30;63.50
45763;BME280;37512;52.408;13.356;2024-01-30T02:46:19;102386.78;;;4.99;65.90
45763;BME280;37512;52.408;13.356;2024-01-30T02:50:21;102387.53;;;5.01;65.37
45763;BME280;37512;52.408;13.356;2024-01-30T02:54:23;102372.75;;;4.97;65.01
45763;BME280;37512;52.408;13.356;2024-01-30T02:58:25;102373.22;;;5.17;64.76
45763;BME280;37512;52.408;13.356;2024-01-30T03:02:26;102381.97;;;4.92;66.80
45763;BME280;37512;52.408;13.356;2024-01-30T03:06:28;102371.78;;;5.25;64.40
45763;BME280;37512;52.408;13.356;2024-01-30T03:10:30;102373.44;;;5.13;66.25
45763;BME280;37512;52.408;13.356;2024-01-30T03:14:31;102362.81;;;5.13;64.82
45763;BME280;37512;52.408;13.356;2024-01-30T03:18:33;102360.56;;;4.80;66.40
45763;BME280;37512;52.408;13.356;2024-01-30T03:22:35;102356.00;;;4.82;67.53
45763;BME280;37512;52.408;13.356;2024-01-30T03:26:36;102359.38;;;4.99;66.44
45763;BME280;37512;52.408;13.356;2024-01-30T03:30:39;102366.03;;;4.65;68.13
45763;BME280;37512;52.408;13.356;2024-01-30T03:34:41;102358.16;;;4.63;69.00
45763;BME280;37512;52.408;13.356;2024-01-30T03:38:42;102354.28;;;4.69;68.50
45763;BME280;37512;52.408;13.356;2024-01-30T03:42:44;102363.16;;;4.68;68.34
45763;BME280;37512;52.408;13.356;2024-01-30T03:46:45;102355.75;;;5.00;67.49
45763;BME280;37512;52.408;13.356;2024-01-30T03:50:47;102359.03;;;4.91;67.20
45763;BME280;37512;52.408;13.356;2024-01-30T03:54:49;102357.63;;;4.58;68.78
45763;BME280;37512;52.408;13.356;2024-01-30T03:58:51;102361.28;;;4.29;71.05
45763;BME280;37512;52.408;13.356;2024-01-30T04:02:53;102361.69;;;4.08;73.57
45763;BME280;37512;52.408;13.356;2024-01-30T04:06:54;102363.88;;;4.02;74.08
45763;BME280;37512;52.408;13.356;2024-01-30T04:10:56;102357.75;;;4.42;71.88
45763;BME280;37512;52.408;13.356;2024-01-30T04:14:58;102363.06;;;4.42;71.42
45763;BME280;37512;52.408;13.356;2024-01-30T04:18:59;102352.88;;;3.79;76.12
45763;BME280;37512;52.408;13.356;2024-01-30T04:23:01;102362.31;;;4.40;72.55
45763;BME280;37512;52.408;13.356;2024-01-30T04:27:03;102358.69;;;4.56;71.72
45763;BME280;37512;52.408;13.356;2024-01-30T04:31:04;102354.44;;;4.53;71.46
45763;BME280;37512;52.408;13.356;2024-01-30T04:35:06;102347.13;;;4.42;72.42
45763;BME280;37512;52.408;13.356;2024-01-30T04:39:12;102343.44;;;4.45;71.72
45763;BME280;37512;52.408;13.356;2024-01-30T04:43:14;102347.97;;;4.57;71.52
45763;BME280;37512;52.408;13.356;2024-01-30T04:47:17;102352.34;;;4.44;72.13
45763;BME280;37512;52.408;13.356;2024-01-30T04:51:18;102350.97;;;4.24;73.92
45763;BME280;37512;52.408;13.356;2024-01-30T04:55:20;102360.63;;;4.39;73.32
45763;BME280;37512;52.408;13.356;2024-01-30T04:59:24;102353.00;;;4.47;73.06
45763;BME280;37512;52.408;13.356;2024-01-30T05:03:25;102356.72;;;4.31;73.59
45763;BME280;37512;52.408;13.356;2024-01-30T05:07:27;102350.34;;;4.47;73.77
45763;BME280;37512;52.408;13.356;2024-01-30T05:11:29;102340.81;;;4.84;71.32
45763;BME280;37512;52.408;13.356;2024-01-30T05:15:30;102339.00;;;4.72;71.15
45763;BME280;37512;52.408;13.356;2024-01-30T05:19:32;102344.31;;;4.72;71.14
45763;BME280;37512;52.408;13.356;2024-01-30T05:23:33;102355.78;;;4.32;73.28
45763;BME280;37512;52.408;13.356;2024-01-30T05:27:35;102358.78;;;4.54;71.85
45763;BME280;37512;52.408;13.356;2024-01-30T05:31:36;102349.50;;;4.47;72.44
45763;BME280;37512;52.408;13.356;2024-01-30T05:35:38;102351.53;;;4.15;74.72
45763;BME280;37512;52.408;13.356;2024-01-30T05:39:40;102349.25;;;4.37;73.56
45763;BME280;37512;52.408;13.356;2024-01-30T05:43:42;102344.47;;;4.42;73.25
45763;BME280;37512;52.408;13.356;2024-01-30T05:47:43;102345.16;;;4.32;73.60
45763;BME280;37512;52.408;13.356;2024-01-30T05:51:45;102346.19;;;4.43;73.28
45763;BME280;37512;52.408;13.356;2024-01-30T05:55:46;102337.13;;;4.60;72.53
45763;BME280;37512;52.408;13.356;2024-01-30T05:59:48;102348.03;;;4.70;71.80
45763;BME280;37512;52.408;13.356;2024-01-30T06:03:49;102338.59;;;4.51;73.15
45763;BME280;37512;52.408;13.356;2024-01-30T06:07:51;102334.75;;;4.29;74.07
45763;BME280;37512;52.408;13.356;2024-01-30T06:11:52;102342.16;;;4.50;75.40
45763;BME280;37512;52.408;13.356;2024-01-30T06:15:54;102342.00;;;4.53;72.96
45763;BME280;37512;52.408;13.356;2024-01-30T06:19:55;102340.13;;;4.68;72.39
45763;BME280;37512;52.408;13.356;2024-01-30T06:23:57;102339.84;;;4.73;71.65
45763;BME280;37512;52.408;13.356;2024-01-30T06:27:58;102335.13;;;4.64;72.11
45763;BME280;37512;52.408;13.356;2024-01-30T06:32:00;102328.59;;;4.28;73.25
45763;BME280;37512;52.408;13.356;2024-01-30T06:36:01;102330.47;;;4.40;73.58
45763;BME280;37512;52.408;13.356;2024-01-30T06:40:03;102322.16;;;4.59;72.35
45763;BME280;37512;52.408;13.356;2024-01-30T06:44:06;102332.31;;;4.79;70.98
45763;BME280;37512;52.408;13.356;2024-01-30T06:48:09;102321.53;;;4.95;69.38
45763;BME280;37512;52.408;13.356;2024-01-30T06:52:11;102326.84;;;4.95;69.90
45763;BME280;37512;52.408;13.356;2024-01-30T06:56:14;102335.72;;;4.81;70.94
45763;BME280;37512;52.408;13.356;2024-01-30T07:00:16;102322.63;;;5.18;68.31
45763;BME280;37512;52.408;13.356;2024-01-30T07:04:17;102317.13;;;5.34;67.99
45763;BME280;37512;52.408;13.356;2024-01-30T07:08:19;102324.72;;;4.88;70.12
45763;BME280;37512;52.408;13.356;2024-01-30T07:12:23;102331.06;;;4.85;70.54
45763;BME280;37512;52.408;13.356;2024-01-30T07:16:25;102337.47;;;4.95;70.57
45763;BME280;37512;52.408;13.356;2024-01-30T07:20:27;102328.31;;;4.87;70.72
45763;BME280;37512;52.408;13.356;2024-01-30T07:24:29;102334.81;;;4.95;70.40
45763;BME280;37512;52.408;13.356;2024-01-30T07:28:30;102332.94;;;4.70;70.90
45763;BME280;37512;52.408;13.356;2024-01-30T07:32:32;102327.63;;;4.70;71.04
45763;BME280;37512;52.408;13.356;2024-01-30T07:36:33;102321.25;;;4.46;73.33
45763;BME280;37512;52.408;13.356;2024-01-30T07:40:35;102319.19;;;4.91;70.75
45763;BME280;37512;52.408;13.356;2024-01-30T07:44:38;102315.44;;;4.80;71.04
45763;BME280;37512;52.408;13.356;2024-01-30T07:48:39;102323.16;;;4.71;71.75
45763;BME280;37512;52.408;13.356;2024-01-30T07:52:42;102318.44;;;5.01;70.18
45763;BME280;37512;52.408;13.356;2024-01-30T07:56:43;102318.59;;;4.73;70.62
45763;BME280;37512;52.408;13.356;2024-01-30T08:00:45;102319.50;;;5.38;69.12
45763;BME280;37512;52.408;13.356;2024-01-30T08:04:47;102323.19;;;5.23;69.12
45763;BME280;37512;52.408;13.356;2024-01-30T08:08:51;102328.78;;;5.19;69.24
45763;BME280;37512;52.408;13.356;2024-01-30T08:12:54;102328.59;;;4.69;72.28
45763;BME280;37512;52.408;13.356;2024-01-30T08:16:56;102312.66;;;5.34;69.64
45763;BME280;37512;52.408;13.356;2024-01-30T08:20:57;102309.81;;;5.75;66.88
45763;BME280;37512;52.408;13.356;2024-01-30T08:24:59;102306.03;;;6.03;65.88
45763;BME280;37512;52.408;13.356;2024-01-30T08:29:01;102304.59;;;6.23;64.61
45763;BME280;37512;52.408;13.356;2024-01-30T08:33:03;102307.56;;;6.08;64.98
45763;BME280;37512;52.408;13.356;2024-01-30T08:37:04;102301.09;;;5.61;66.63
45763;BME280;37512;52.408;13.356;2024-01-30T08:41:07;102306.06;;;5.78;66.83
45763;BME280;37512;52.408;13.356;2024-01-30T08:45:09;102294.72;;;6.25;63.69
45763;BME280;37512;52.408;13.356;2024-01-30T08:49:11;102299.66;;;6.43;63.89
45763;BME280;37512;52.408;13.356;2024-01-30T08:53:16;102303.69;;;6.12;63.95
45763;BME280;37512;52.408;13.356;2024-01-30T08:57:18;102295.81;;;6.71;62.29
45763;BME280;37512;52.408;13.356;2024-01-30T09:01:19;102300.59;;;6.42;63.63
45763;BME280;37512;52.408;13.356;2024-01-30T09:05:21;102301.94;;;6.23;64.35
45763;BME280;37512;52.408;13.356;2024-01-30T09:09:22;102302.22;;;7.03;61.25
45763;BME280;37512;52.408;13.356;2024-01-30T09:13:24;102301.66;;;6.15;64.29
45763;BME280;37512;52.408;13.356;2024-01-30T09:17:25;102313.91;;;6.18;64.36
45763;BME280;37512;52.408;13.356;2024-01-30T09:21:27;102305.47;;;6.95;62.40
45763;BME280;37512;52.408;13.356;2024-01-30T09:25:28;102300.03;;;6.73;63.25
45763;BME280;37512;52.408;13.356;2024-01-30T09:29:30;102295.72;;;7.18;61.27
45763;BME280;37512;52.408;13.356;2024-01-30T09:33:31;102297.94;;;7.36;59.67
45763;BME280;37512;52.408;13.356;2024-01-30T09:37:33;102293.53;;;6.77;60.87
45763;BME280;37512;52.408;13.356;2024-01-30T09:41:45;102291.81;;;7.00;61.20
45763;BME280;37512;52.408;13.356;2024-01-30T09:45:50;102297.38;;;6.97;61.31
45763;BME280;37512;52.408;13.356;2024-01-30T09:49:52;102295.19;;;7.02;60.67
45763;BME280;37512;52.408;13.356;2024-01-30T09:53:54;102291.88;;;7.45;59.05
45763;BME280;37512;52.408;13.356;2024-01-30T09:57:56;102286.06;;;7.40;58.24
45763;BME280;37512;52.408;13.356;2024-01-30T10:01:57;102291.28;;;7.41;58.23
45763;BME280;37512;52.408;13.356;2024-01-30T10:06:00;102284.91;;;7.66;57.05
45763;BME280;37512;52.408;13.356;2024-01-30T10:10:02;102271.53;;;7.33;57.44
45763;BME280;37512;52.408;13.356;2024-01-30T10:14:04;102285.34;;;8.16;55.72
45763;BME280;37512;52.408;13.356;2024-01-30T10:18:06;102279.03;;;8.06;54.67
45763;BME280;37512;52.408;13.356;2024-01-30T10:22:09;102275.69;;;7.81;55.46
45763;BME280;37512;52.408;13.356;2024-01-30T10:26:11;102278.31;;;8.04;54.31
45763;BME280;37512;52.408;13.356;2024-01-30T10:30:12;102275.28;;;7.97;54.38
45763;BME280;37512;52.408;13.356;2024-01-30T10:34:14;102270.19;;;8.05;54.14
45763;BME280;37512;52.408;13.356;2024-01-30T10:38:26;102276.00;;;8.10;53.87
45763;BME280;37512;52.408;13.356;2024-01-30T10:42:31;102268.81;;;8.11;53.39
45763;BME280;37512;52.408;13.356;2024-01-30T10:46:35;102260.94;;;8.21;54.22
45763;BME280;37512;52.408;13.356;2024-01-30T10:50:36;102270.59;;;7.67;55.12
45763;BME280;37512;52.408;13.356;2024-01-30T10:54:51;102273.97;;;7.69;54.76
45763;BME280;37512;52.408;13.356;2024-01-30T10:58:54;102258.88;;;8.13;53.75
45763;BME280;37512;52.408;13.356;2024-01-30T11:02:56;102262.91;;;8.83;52.13
45763;BME280;37512;52.408;13.356;2024-01-30T11:06:58;102266.41;;;7.97;54.03
45763;BME280;37512;52.408;13.356;2024-01-30T11:11:01;102260.47;;;8.59;53.93
45763;BME280;37512;52.408;13.356;2024-01-30T11:15:05;102266.66;;;8.16;53.93
45763;BME280;37512;52.408;13.356;2024-01-30T11:19:10;102259.25;;;8.63;53.51
45763;BME280;37512;52.408;13.356;2024-01-30T11:23:13;102250.19;;;8.00;54.78
45763;BME280;37512;52.408;13.356;2024-01-30T11:27:16;102254.06;;;8.82;53.33
45763;BME280;37512;52.408;13.356;2024-01-30T11:31:18;102237.81;;;8.74;53.44
45763;BME280;37512;52.408;13.356;2024-01-30T11:35:20;102246.56;;;9.18;52.87
45763;BME280;37512;52.408;13.356;2024-01-30T11:39:23;102237.53;;;9.19;52.42
45763;BME280;37512;52.408;13.356;2024-01-30T11:43:25;102250.44;;;9.34;52.13
45763;BME280;37512;52.408;13.356;2024-01-30T11:47:27;102245.06;;;9.25;52.70
45763;BME280;37512;52.408;13.356;2024-01-30T11:51:30;102246.50;;;8.87;53.51
45763;BME280;37512;52.408;13.356;2024-01-30T11:55:33;102235.47;;;9.01;53.29
45763;BME280;37512;52.408;13.356;2024-01-30T11:59:37;102237.91;;;9.35;52.82
45763;BME280;37512;52.408;13.356;2024-01-30T12:03:38;102232.13;;;9.60;52.30
45763;BME280;37512;52.408;13.356;2024-01-30T12:07:40;102224.69;;;9.33;53.56
45763;BME280;37512;52.408;13.356;2024-01-30T12:11:46;102224.19;;;9.19;54.41
45763;BME280;37512;52.408;13.356;2024-01-30T12:15:48;102221.59;;;8.87;54.94
45763;BME280;37512;52.408;13.356;2024-01-30T12:19:49;102212.97;;;8.83;55.14
45763;BME280;37512;52.408;13.356;2024-01-30T12:23:51;102214.59;;;9.77;53.32
45763;BME280;37512;52.408;13.356;2024-01-30T12:27:53;102210.09;;;9.87;53.35
45763;BME280;37512;52.408;13.356;2024-01-30T12:31:55;102204.72;;;9.78;53.33
45763;BME280;37512;52.408;13.356;2024-01-30T12:36:02;102190.00;;;9.22;55.19
45763;BME280;37512;52.408;13.356;2024-01-30T12:40:05;102185.72;;;9.41;54.51
45763;BME280;37512;52.408;13.356;2024-01-30T12:44:10;102185.16;;;9.77;54.10
45763;BME280;37512;52.408;13.356;2024-01-30T12:48:12;102179.81;;;9.87;53.88
45763;BME280;37512;52.408;13.356;2024-01-30T12:52:16;102165.06;;;10.21;52.81
45763;BME280;37512;52.408;13.356;2024-01-30T12:56:24;102156.28;;;10.00;53.51
45763;BME280;37512;52.408;13.356;2024-01-30T13:00:25;102161.38;;;9.93;53.45
45763;BME280;37512;52.408;13.356;2024-01-30T13:04:27;102161.81;;;10.18;53.85
45763;BME280;37512;52.408;13.356;2024-01-30T13:08:30;102168.94;;;9.79;54.46
45763;BME280;37512;52.408;13.356;2024-01-30T13:12:32;102169.63;;;9.71;54.98
45763;BME280;37512;52.408;13.356;2024-01-30T13:16:35;102158.91;;;9.71;55.77
45763;BME280;37512;52.408;13.356;2024-01-30T13:20:36;102148.44;;;10.08;54.36
45763;BME280;37512;52.408;13.356;2024-01-30T13:24:38;102142.53;;;10.34;54.78
45763;BME280;37512;52.408;13.356;2024-01-30T13:28:39;102129.97;;;10.53;54.10
45763;BME280;37512;52.408;13.356;2024-01-30T13:32:41;102131.09;;;10.12;54.80
45763;BME280;37512;52.408;13.356;2024-01-30T13:36:45;102129.53;;;10.39;54.19
45763;BME280;37512;52.408;13.356;2024-01-30T13:40:48;102122.19;;;10.41;55.13
45763;BME280;37512;52.408;13.356;2024-01-30T13:44:50;102121.06;;;9.95;56.00
45763;BME280;37512;52.408;13.356;2024-01-30T13:48:53;102136.47;;;10.22;55.18
45763;BME280;37512;52.408;13.356;2024-01-30T13:52:55;102142.00;;;9.71;56.89
45763;BME280;37512;52.408;13.356;2024-01-30T13:56:59;102141.50;;;10.15;56.54
45763;BME280;37512;52.408;13.356;2024-01-30T14:01:00;102151.81;;;10.10;56.69
45763;BME280;37512;52.408;13.356;2024-01-30T14:05:02;102142.88;;;9.81;57.39
45763;BME280;37512;52.408;13.356;2024-01-30T14:09:06;102135.31;;;9.95;57.82
45763;BME280;37512;52.408;13.356;2024-01-30T14:13:09;102135.75;;;10.10;57.41
45763;BME280;37512;52.408;13.356;2024-01-30T14:17:11;102133.25;;;10.28;57.09
45763;BME280;37512;52.408;13.356;2024-01-30T14:21:12;102131.59;;;10.74;55.79
45763;BME280;37512;52.408;13.356;2024-01-30T14:25:14;102141.38;;;10.65;56.12
45763;BME280;37512;52.408;13.356;2024-01-30T14:29:17;102143.63;;;10.41;57.48
45763;BME280;37512;52.408;13.356;2024-01-30T14:33:18;102125.31;;;10.17;58.09
45763;BME280;37512;52.408;13.356;2024-01-30T14:37:23;102130.41;;;10.49;57.29
45763;BME280;37512;52.408;13.356;2024-01-30T14:41:25;102139.41;;;10.19;58.46
45763;BME280;37512;52.408;13.356;2024-01-30T14:45:26;102140.44;;;9.68;60.51
45763;BME280;37512;52.408;13.356;2024-01-30T14:49:28;102146.88;;;9.46;61.45
45763;BME280;37512;52.408;13.356;2024-01-30T14:53:29;102134.91;;;9.50;61.52
45763;BME280;37512;52.408;13.356;2024-01-30T14:57:31;102125.75;;;9.43;61.08
45763;BME280;37512;52.408;13.356;2024-01-30T15:01:33;102130.97;;;9.04;62.94
45763;BME280;37512;52.408;13.356;2024-01-30T15:05:35;102136.47;;;9.43;61.47
45763;BME280;37512;52.408;13.356;2024-01-30T15:09:36;102134.06;;;9.40;62.08
45763;BME280;37512;52.408;13.356;2024-01-30T15:13:38;102135.81;;;9.20;63.27
45763;BME280;37512;52.408;13.356;2024-01-30T15:17:40;102143.31;;;9.36;62.23
45763;BME280;37512;52.408;13.356;2024-01-30T15:21:42;102146.03;;;9.05;64.17
45763;BME280;37512;52.408;13.356;2024-01-30T15:25:43;102142.44;;;9.26;63.04
45763;BME280;37512;52.408;13.356;2024-01-30T15:29:45;102133.47;;;9.36;62.61
45763;BME280;37512;52.408;13.356;2024-01-30T15:33:47;102145.81;;;9.58;61.71
45763;BME280;37512;52.408;13.356;2024-01-30T15:37:48;102148.63;;;9.26;63.19
45763;BME280;37512;52.408;13.356;2024-01-30T15:41:50;102156.34;;;9.20;63.39
45763;BME280;37512;52.408;13.356;2024-01-30T15:45:52;102155.59;;;9.08;64.68
45763;BME280;37512;52.408;13.356;2024-01-30T15:49:53;102157.44;;;9.17;64.35
45763;BME280;37512;52.408;13.356;2024-01-30T15:53:55;102152.44;;;9.24;63.57
45763;BME280;37512;52.408;13.356;2024-01-30T15:57:57;102154.25;;;9.23;63.48
45763;BME280;37512;52.408;13.356;2024-01-30T16:01:58;102163.06;;;9.14;64.21
45763;BME280;37512;52.408;13.356;2024-01-30T16:06:00;102159.59;;;8.93;65.00
45763;BME280;37512;52.408;13.356;2024-01-30T16:10:02;102154.34;;;9.12;64.22
45763;BME280;37512;52.408;13.356;2024-01-30T16:14:04;102141.69;;;9.14;63.95
45763;BME280;37512;52.408;13.356;2024-01-30T16:18:06;102150.41;;;9.16;64.14
45763;BME280;37512;52.408;13.356;2024-01-30T16:22:07;102144.50;;;9.13;64.42
45763;BME280;37512;52.408;13.356;2024-01-30T16:26:09;102150.28;;;9.18;64.19
45763;BME280;37512;52.408;13.356;2024-01-30T16:30:10;102148.59;;;9.17;64.59
45763;BME280;37512;52.408;13.356;2024-01-30T16:34:12;102149.53;;;9.06;65.38
45763;BME280;37512;52.408;13.356;2024-01-30T16:38:14;102147.03;;;9.14;64.61
45763;BME280;37512;52.408;13.356;2024-01-30T16:42:15;102157.44;;;9.07;64.91
45763;BME280;37512;52.408;13.356;2024-01-30T16:46:17;102161.94;;;8.65;68.12
45763;BME280;37512;52.408;13.356;2024-01-30T16:50:19;102156.41;;;8.78;67.42
45763;BME280;37512;52.408;13.356;2024-01-30T16:54:20;102154.06;;;8.64;68.78
45763;BME280;37512;52.408;13.356;2024-01-30T16:58:22;102165.72;;;8.63;68.64
45763;BME280;37512;52.408;13.356;2024-01-30T17:02:23;102159.09;;;8.57;69.52
45763;BME280;37512;52.408;13.356;2024-01-30T17:06:25;102164.03;;;8.62;69.72
45763;BME280;37512;52.408;13.356;2024-01-30T17:10:27;102163.97;;;8.73;69.24
45763;BME280;37512;52.408;13.356;2024-01-30T17:14:29;102161.72;;;8.99;67.73
45763;BME280;37512;52.408;13.356;2024-01-30T17:18:31;102166.00;;;8.60;70.09
45763;BME280;37512;52.408;13.356;2024-01-30T17:22:33;102146.81;;;8.75;69.52
45763;BME280;37512;52.408;13.356;2024-01-30T17:26:34;102162.34;;;9.02;68.20
45763;BME280;37512;52.408;13.356;2024-01-30T17:30:36;102169.38;;;8.62;70.80
45763;BME280;37512;52.408;13.356;2024-01-30T17:34:38;102184.28;;;8.32;73.30
45763;BME280;37512;52.408;13.356;2024-01-30T17:38:40;102169.09;;;8.33;74.49
45763;BME280;37512;52.408;13.356;2024-01-30T17:42:42;102174.38;;;8.23;75.50
45763;BME280;37512;52.408;13.356;2024-01-30T17:46:43;102175.41;;;8.43;74.32
45763;BME280;37512;52.408;13.356;2024-01-30T17:50:45;102184.09;;;8.35;74.66
45763;BME280;37512;52.408;13.356;2024-01-30T17:54:47;102190.06;;;8.49;73.45
45763;BME280;37512;52.408;13.356;2024-01-30T17:58:48;102197.72;;;8.53;74.10
45763;BME280;37512;52.408;13.356;2024-01-30T18:02:50;102194.53;;;8.59;74.05
45763;BME280;37512;52.408;13.356;2024-01-30T18:06:54;102201.03;;;8.45;75.83
45763;BME280;37512;52.408;13.356;2024-01-30T18:10:57;102196.41;;;8.48;75.24
45763;BME280;37512;52.408;13.356;2024-01-30T18:14:59;102203.25;;;8.29;76.65
45763;BME280;37512;52.408;13.356;2024-01-30T18:19:00;102206.50;;;8.33;76.64
45763;BME280;37512;52.408;13.356;2024-01-30T18:23:02;102206.81;;;8.19;77.88
45763;BME280;37512;52.408;13.356;2024-01-30T18:27:04;102214.38;;;8.45;76.27
45763;BME280;37512;52.408;13.356;2024-01-30T18:31:05;102226.50;;;8.50;77.20
45763;BME280;37512;52.408;13.356;2024-01-30T18:35:07;102224.34;;;8.43;76.75
45763;BME280;37512;52.408;13.356;2024-01-30T18:39:09;102231.47;;;8.54;75.65
45763;BME280;37512;52.408;13.356;2024-01-30T18:43:11;102229.13;;;8.61;76.08
45763;BME280;37512;52.408;13.356;2024-01-30T18:47:13;102232.34;;;8.75;75.23
45763;BME280;37512;52.408;13.356;2024-01-30T18:51:15;102228.88;;;8.64;75.84
45763;BME280;37512;52.408;13.356;2024-01-30T18:55:19;102230.91;;;8.71;75.63
45763;BME280;37512;52.408;13.356;2024-01-30T18:59:22;102231.22;;;8.78;75.21
45763;BME280;37512;52.408;13.356;2024-01-30T19:03:23;102236.25;;;8.71;76.08
45763;BME280;37512;52.408;13.356;2024-01-30T19:07:25;102240.63;;;8.72;76.63
45763;BME280;37512;52.408;13.356;2024-01-30T19:11:27;102232.03;;;8.69;76.87
45763;BME280;37512;52.408;13.356;2024-01-30T19:15:28;102236.59;;;8.78;77.44
45763;BME280;37512;52.408;13.356;2024-01-30T19:19:30;102233.31;;;8.95;75.96
45763;BME280;37512;52.408;13.356;2024-01-30T19:23:32;102229.09;;;8.93;77.02
45763;BME280;37512;52.408;13.356;2024-01-30T19:27:33;102235.13;;;9.16;76.12
45763;BME280;37512;52.408;13.356;2024-01-30T19:31:35;102231.03;;;9.12;77.11
45763;BME280;37512;52.408;13.356;2024-01-30T19:35:36;102240.25;;;8.98;78.63
45763;BME280;37512;52.408;13.356;2024-01-30T19:39:38;102230.91;;;9.13;78.08
45763;BME280;37512;52.408;13.356;2024-01-30T19:43:40;102225.00;;;9.40;76.85
45763;BME280;37512;52.408;13.356;2024-01-30T19:47:41;102231.66;;;9.46;76.34
45763;BME280;37512;52.408;13.356;2024-01-30T19:51:43;102224.97;;;9.10;79.42
45763;BME280;37512;52.408;13.356;2024-01-30T19:55:44;102232.16;;;8.88;81.31
45763;BME280;37512;52.408;13.356;2024-01-30T19:59:46;102236.00;;;8.74;83.25
45763;BME280;37512;52.408;13.356;2024-01-30T20:03:47;102224.41;;;8.85;83.25
45763;BME280;37512;52.408;13.356;2024-01-30T20:07:49;102234.56;;;8.91;83.31
45763;BME280;37512;52.408;13.356;2024-01-30T20:11:51;102225.34;;;8.84;84.00
45763;BME280;37512;52.408;13.356;2024-01-30T20:15:54;102223.31;;;9.18;81.49
45763;BME280;37512;52.408;13.356;2024-01-30T20:19:55;102221.44;;;9.30;80.92
45763;BME280;37512;52.408;13.356;2024-01-30T20:23:58;102236.88;;;9.47;79.67
45763;BME280;37512;52.408;13.356;2024-01-30T20:27:59;102235.72;;;9.19;81.43
45763;BME280;37512;52.408;13.356;2024-01-30T20:32:02;102236.84;;;9.17;82.45
45763;BME280;37512;52.408;13.356;2024-01-30T20:36:07;102241.34;;;8.95;83.87
45763;BME280;37512;52.408;13.356;2024-01-30T20:40:09;102245.91;;;8.84;85.80
45763;BME280;37512;52.408;13.356;2024-01-30T20:44:11;102244.47;;;9.00;84.51
45763;BME280;37512;52.408;13.356;2024-01-30T20:48:14;102249.50;;;8.73;87.37
45763;BME280;37512;52.408;13.356;2024-01-30T20:52:16;102247.41;;;8.76;87.40
45763;BME280;37512;52.408;13.356;2024-01-30T20:56:18;102252.56;;;8.68;88.71
45763;BME280;37512;52.408;13.356;2024-01-30T21:00:20;102255.69;;;8.94;86.51
45763;BME280;37512;52.408;13.356;2024-01-30T21:04:22;102250.03;;;8.88;87.06